createdAt,value
2019-03-30T00:00:29.773Z,13.83
2019-03-30T00:02:59.183Z,16.90
2019-03-30T00:05:28.482Z,14.30
2019-03-30T00:07:58.386Z,14.13
2019-03-30T00:10:27.980Z,17.90
2019-03-30T00:12:57.902Z,13.87
2019-03-30T00:15:27.285Z,14.40
2019-03-30T00:17:56.752Z,16.80
2019-03-30T00:20:26.127Z,16.17
2019-03-30T00:22:55.434Z,14.60
2019-03-30T00:25:25.327Z,13.10
2019-03-30T00:27:54.635Z,17.27
2019-03-30T00:30:24.236Z,14.67
2019-03-30T00:32:53.577Z,19.47
2019-03-30T00:35:23.110Z,15.00
2019-03-30T00:37:52.415Z,16.23
2019-03-30T00:40:21.699Z,15.30
2019-03-30T00:42:51.231Z,14.27
2019-03-30T00:45:20.873Z,18.80
2019-03-30T00:47:50.197Z,19.47
2019-03-30T00:50:19.875Z,14.77
2019-03-30T00:52:49.459Z,15.97
2019-03-30T00:55:18.868Z,14.80
2019-03-30T00:57:48.458Z,17.83
2019-03-30T01:00:18.264Z,16.07
2019-03-30T01:02:47.736Z,14.87
2019-03-30T01:05:17.216Z,15.10
2019-03-30T01:07:47.175Z,13.07
2019-03-30T01:10:16.585Z,15.77
2019-03-30T01:12:46.241Z,13.60
2019-03-30T01:15:15.767Z,15.10
2019-03-30T01:17:45.163Z,13.07
2019-03-30T01:20:14.634Z,13.33
2019-03-30T01:22:44.036Z,15.87
2019-03-30T01:25:14.012Z,15.93
2019-03-30T01:27:43.344Z,14.73
2019-03-30T01:30:23.072Z,15.47
2019-03-30T01:32:44.677Z,16.20
2019-03-30T01:35:14.105Z,14.10
2019-03-30T01:37:43.772Z,14.77
2019-03-30T01:40:13.709Z,15.90
2019-03-30T01:42:43.366Z,15.57
2019-03-30T01:45:13.366Z,17.20
2019-03-30T01:47:42.908Z,13.97
2019-03-30T01:50:17.760Z,17.53
2019-03-30T01:52:43.738Z,14.77
2019-03-30T01:55:13.314Z,14.00
2019-03-30T01:57:42.640Z,17.90
2019-03-30T02:00:12.784Z,15.27
2019-03-30T02:02:42.572Z,19.63
2019-03-30T02:05:12.028Z,17.33
2019-03-30T02:07:41.700Z,16.70
2019-03-30T02:10:11.956Z,15.67
2019-03-30T02:12:41.287Z,14.30
2019-03-30T02:15:11.421Z,17.23
2019-03-30T02:17:59.766Z,15.53
2019-03-30T02:20:38.836Z,15.47
2019-03-30T02:23:08.481Z,16.93
2019-03-30T02:25:37.835Z,16.30
2019-03-30T02:28:07.409Z,17.90
2019-03-30T02:30:37.276Z,18.80
2019-03-30T02:33:07.390Z,17.67
2019-03-30T02:35:36.852Z,17.27
2019-03-30T02:38:06.639Z,17.10
2019-03-30T02:40:36.023Z,18.60
2019-03-30T02:43:05.772Z,19.87
2019-03-30T02:45:35.591Z,19.53
2019-03-30T02:48:05.150Z,19.47
2019-03-30T02:50:48.502Z,18.17
2019-03-30T02:53:05.657Z,19.70
2019-03-30T02:55:35.413Z,20.87
2019-03-30T02:58:05.090Z,21.10
2019-03-30T03:00:34.521Z,19.87
2019-03-30T03:03:04.253Z,23.23
2019-03-30T03:05:33.564Z,25.53
2019-03-30T03:08:02.978Z,24.10
2019-03-30T03:10:32.472Z,24.80
2019-03-30T03:13:02.176Z,21.43
2019-03-30T03:15:31.644Z,23.43
2019-03-30T03:18:00.958Z,24.50
2019-03-30T03:20:30.309Z,22.93
2019-03-30T03:22:59.705Z,25.83
2019-03-30T03:25:29.389Z,22.03
2019-03-30T03:27:58.756Z,20.53
2019-03-30T03:30:28.435Z,23.13
2019-03-30T03:32:58.052Z,23.77
2019-03-30T03:35:27.455Z,23.60
2019-03-30T03:37:56.841Z,24.10
2019-03-30T03:40:26.184Z,25.47
2019-03-30T03:42:56.069Z,22.10
2019-03-30T03:45:25.573Z,21.70
2019-03-30T03:47:55.358Z,22.97
2019-03-30T03:50:37.973Z,21.87
2019-03-30T03:53:08.059Z,25.07
2019-03-30T03:55:39.748Z,22.50
2019-03-30T03:58:10.913Z,20.97
2019-03-30T04:00:40.782Z,20.37
2019-03-30T04:03:11.760Z,21.77
2019-03-30T04:05:44.406Z,21.63
2019-03-30T04:08:14.624Z,21.83
2019-03-30T04:10:47.598Z,20.93
2019-03-30T04:13:17.132Z,21.57
2019-03-30T04:15:46.824Z,20.60
2019-03-30T04:18:17.307Z,19.50
2019-03-30T04:20:46.643Z,20.73
2019-03-30T04:23:15.952Z,16.87
2019-03-30T04:25:45.363Z,14.10
2019-03-30T04:28:14.780Z,16.60
2019-03-30T04:30:44.375Z,20.13
2019-03-30T04:33:13.742Z,21.90
2019-03-30T04:35:43.052Z,14.73
2019-03-30T04:38:14.431Z,15.37
2019-03-30T04:40:43.456Z,17.73
2019-03-30T04:43:12.876Z,16.30
2019-03-30T04:45:42.316Z,16.97
2019-03-30T04:48:12.043Z,17.77
2019-03-30T04:50:41.416Z,17.80
2019-03-30T04:53:10.784Z,19.97
2019-03-30T04:55:40.847Z,21.70
2019-03-30T04:58:10.209Z,20.27
2019-03-30T05:00:40.257Z,21.20
2019-03-30T05:03:09.581Z,19.37
2019-03-30T05:05:38.982Z,21.93
2019-03-30T05:08:08.659Z,19.07
2019-03-30T05:10:37.972Z,20.77
2019-03-30T05:13:07.323Z,17.70
2019-03-30T05:15:36.777Z,19.23
2019-03-30T05:18:06.092Z,16.63
2019-03-30T05:20:35.744Z,19.07
2019-03-30T05:23:05.059Z,21.00
2019-03-30T05:25:34.746Z,23.17
2019-03-30T05:28:04.697Z,18.77
2019-03-30T05:30:34.312Z,21.30
2019-03-30T05:33:06.129Z,20.40
2019-03-30T05:35:35.299Z,25.83
2019-03-30T05:38:05.047Z,15.47
2019-03-30T05:40:34.400Z,22.03
2019-03-30T05:43:04.168Z,22.93
2019-03-30T05:45:33.823Z,23.20
2019-03-30T05:48:03.147Z,20.13
2019-03-30T05:50:32.537Z,22.43
2019-03-30T05:53:02.167Z,22.07
2019-03-30T05:55:31.734Z,20.70
2019-03-30T05:58:01.077Z,22.83
2019-03-30T06:00:30.564Z,21.33
2019-03-30T06:02:59.963Z,19.13
2019-03-30T06:05:29.588Z,22.70
2019-03-30T06:07:58.919Z,21.70
2019-03-30T06:10:28.475Z,21.43
2019-03-30T06:12:57.832Z,22.97
2019-03-30T06:15:27.299Z,20.33
2019-03-30T06:17:56.709Z,21.00
2019-03-30T06:20:26.003Z,23.53
2019-03-30T06:22:55.982Z,21.43
2019-03-30T06:25:25.360Z,22.87
2019-03-30T06:27:55.393Z,20.87
2019-03-30T06:30:28.980Z,19.50
2019-03-30T06:32:58.295Z,20.30
2019-03-30T06:35:28.512Z,22.57
2019-03-30T06:37:57.823Z,20.37
2019-03-30T06:40:27.166Z,22.07
2019-03-30T06:42:56.924Z,22.20
2019-03-30T06:45:26.521Z,20.07
2019-03-30T06:47:56.144Z,19.70
2019-03-30T06:50:25.617Z,21.67
2019-03-30T06:52:58.119Z,19.80
2019-03-30T06:55:26.051Z,20.27
2019-03-30T06:57:55.424Z,20.17
2019-03-30T07:00:33.491Z,19.50
2019-03-30T07:03:05.415Z,21.10
2019-03-30T07:05:41.636Z,21.03
2019-03-30T07:08:14.019Z,19.03
2019-03-30T07:10:45.106Z,18.00
2019-03-30T07:13:15.269Z,18.80
2019-03-30T07:15:50.780Z,19.50
2019-03-30T07:18:20.734Z,21.53
2019-03-30T07:20:50.349Z,17.90
2019-03-30T07:23:20.120Z,18.30
2019-03-30T07:25:49.444Z,19.40
2019-03-30T07:28:19.101Z,19.67
2019-03-30T07:30:49.243Z,19.83
2019-03-30T07:33:18.563Z,20.77
2019-03-30T07:35:47.903Z,20.33
2019-03-30T07:38:17.278Z,19.20
2019-03-30T07:40:46.671Z,19.07
2019-03-30T07:43:16.027Z,16.93
2019-03-30T07:45:45.333Z,17.40
2019-03-30T07:48:14.693Z,21.10
2019-03-30T07:50:44.080Z,21.83
2019-03-30T07:53:25.729Z,19.40
2019-03-30T07:55:45.125Z,17.70
2019-03-30T07:58:14.804Z,17.80
2019-03-30T08:00:44.154Z,18.93
2019-03-30T08:03:13.776Z,17.47
2019-03-30T08:05:43.085Z,21.60
2019-03-30T08:08:12.579Z,19.50
2019-03-30T08:10:42.264Z,18.33
2019-03-30T08:13:11.629Z,17.90
2019-03-30T08:15:41.281Z,19.27
2019-03-30T08:18:10.683Z,17.70
2019-03-30T08:20:40.681Z,19.93
2019-03-30T08:23:10.060Z,15.77
2019-03-30T08:25:39.492Z,17.37
2019-03-30T08:28:08.912Z,17.27
2019-03-30T08:30:38.547Z,18.37
2019-03-30T08:33:08.314Z,19.87
2019-03-30T08:35:38.079Z,17.70
2019-03-30T08:38:07.663Z,17.97
2019-03-30T08:40:37.335Z,20.33
2019-03-30T08:43:06.666Z,19.03
2019-03-30T08:45:36.420Z,19.43
2019-03-30T08:48:06.174Z,20.70
2019-03-30T08:50:35.982Z,19.03
2019-03-30T08:53:05.637Z,22.50
2019-03-30T08:55:35.063Z,20.37
2019-03-30T08:58:04.375Z,19.00
2019-03-30T09:00:41.383Z,20.00
2019-03-30T09:03:11.590Z,22.57
2019-03-30T09:05:41.448Z,19.80
2019-03-30T09:08:11.307Z,21.47
2019-03-30T09:10:40.995Z,16.70
2019-03-30T09:13:10.645Z,18.70
2019-03-30T09:15:40.056Z,20.37
2019-03-30T09:18:09.362Z,20.83
2019-03-30T09:20:38.793Z,21.53
2019-03-30T09:23:08.448Z,21.90
2019-03-30T09:25:37.771Z,20.87
2019-03-30T09:28:07.679Z,21.40
2019-03-30T09:30:37.640Z,21.77
2019-03-30T09:33:07.060Z,23.33
2019-03-30T09:35:36.425Z,24.30
2019-03-30T09:38:05.728Z,23.70
2019-03-30T09:40:35.056Z,22.37
2019-03-30T09:43:04.458Z,25.67
2019-03-30T09:45:33.802Z,22.43
2019-03-30T09:48:03.642Z,24.03
2019-03-30T09:50:33.216Z,24.00
2019-03-30T09:53:02.960Z,24.77
2019-03-30T09:55:32.708Z,22.97
2019-03-30T09:58:02.206Z,21.23
2019-03-30T10:00:31.927Z,23.40
2019-03-30T10:03:01.335Z,25.57
2019-03-30T10:05:30.714Z,23.67
2019-03-30T10:08:00.064Z,23.27
2019-03-30T10:10:29.509Z,24.37
2019-03-30T10:12:59.485Z,22.83
2019-03-30T10:15:28.913Z,23.03
2019-03-30T10:17:58.666Z,23.67
2019-03-30T10:20:28.091Z,22.73
2019-03-30T10:22:57.719Z,25.07
2019-03-30T10:25:27.072Z,23.03
2019-03-30T10:27:57.199Z,23.77
2019-03-30T10:30:26.599Z,23.20
2019-03-30T10:32:56.937Z,25.60
2019-03-30T10:35:27.100Z,25.47
2019-03-30T10:37:56.587Z,23.30
2019-03-30T10:40:26.299Z,23.03
2019-03-30T10:42:56.015Z,24.00
2019-03-30T10:45:25.752Z,23.03
2019-03-30T10:47:55.936Z,22.77
2019-03-30T10:50:26.215Z,25.83
2019-03-30T10:52:56.131Z,25.17
2019-03-30T10:55:25.499Z,23.87
2019-03-30T10:57:58.308Z,25.40
2019-03-30T11:00:37.662Z,23.70
2019-03-30T11:03:07.607Z,23.80
2019-03-30T11:05:37.131Z,21.77
2019-03-30T11:08:06.561Z,24.63
2019-03-30T11:10:36.513Z,22.07
2019-03-30T11:13:06.178Z,21.63
2019-03-30T11:15:35.609Z,24.07
2019-03-30T11:18:05.130Z,22.83
2019-03-30T11:20:35.027Z,20.53
2019-03-30T11:23:04.448Z,23.47
2019-03-30T11:25:33.855Z,23.57
2019-03-30T11:28:03.568Z,23.13
2019-03-30T11:30:33.544Z,24.17
2019-03-30T11:33:02.905Z,21.80
2019-03-30T11:35:32.264Z,24.10
2019-03-30T11:38:01.665Z,22.17
2019-03-30T11:40:31.139Z,22.63
2019-03-30T11:43:00.777Z,21.93
2019-03-30T11:45:31.022Z,22.63
2019-03-30T11:48:00.733Z,22.60
2019-03-30T11:50:30.713Z,23.63
2019-03-30T11:53:00.591Z,22.67
2019-03-30T11:55:30.244Z,23.03
2019-03-30T11:57:59.613Z,22.40
2019-03-30T12:00:29.001Z,20.43
2019-03-30T12:02:58.925Z,21.03
2019-03-30T12:05:28.398Z,21.20
2019-03-30T12:07:58.057Z,20.47
2019-03-30T12:10:27.687Z,21.80
2019-03-30T12:12:57.032Z,20.63
2019-03-30T12:15:26.435Z,24.90
2019-03-30T12:17:55.768Z,20.03
2019-03-30T12:20:25.534Z,21.00
2019-03-30T12:22:55.119Z,19.70
2019-03-30T12:25:34.732Z,19.00
2019-03-30T12:27:56.532Z,16.90
2019-03-30T12:30:28.410Z,20.20
2019-03-30T12:32:58.011Z,18.20
2019-03-30T12:35:27.419Z,20.53
2019-03-30T12:37:56.810Z,21.07
2019-03-30T12:40:26.408Z,16.70
2019-03-30T12:42:55.817Z,16.33
2019-03-30T12:45:25.297Z,13.63
2019-03-30T12:47:55.450Z,15.43
2019-03-30T12:50:24.844Z,18.60
2019-03-30T12:52:55.334Z,17.00
2019-03-30T12:55:24.691Z,17.93
2019-03-30T12:57:54.430Z,16.50
2019-03-30T13:00:23.751Z,15.30
2019-03-30T13:02:53.143Z,17.57
2019-03-30T13:05:22.536Z,17.27
2019-03-30T13:07:51.849Z,20.20
2019-03-30T13:10:21.258Z,15.03
2019-03-30T13:12:50.660Z,18.37
2019-03-30T13:15:20.357Z,16.60
2019-03-30T13:17:50.276Z,16.03
2019-03-30T13:20:19.970Z,16.63
2019-03-30T13:22:49.285Z,16.80
2019-03-30T13:25:18.624Z,14.20
2019-03-30T13:27:48.356Z,17.67
2019-03-30T13:30:18.064Z,15.23
2019-03-30T13:32:47.454Z,18.97
2019-03-30T13:35:16.800Z,16.00
2019-03-30T13:37:46.145Z,16.20
2019-03-30T13:40:15.895Z,14.97
2019-03-30T13:42:45.204Z,14.20
2019-03-30T13:45:14.906Z,14.83
2019-03-30T13:47:45.040Z,17.83
2019-03-30T13:50:15.153Z,13.43
2019-03-30T13:52:44.844Z,14.53
2019-03-30T13:55:15.093Z,13.97
2019-03-30T13:57:44.517Z,13.80
2019-03-30T14:00:14.458Z,14.03
2019-03-30T14:02:44.144Z,12.43
2019-03-30T14:05:13.796Z,11.13
2019-03-30T14:07:43.461Z,12.70
2019-03-30T14:10:15.344Z,12.63
2019-03-30T14:12:45.018Z,13.47
2019-03-30T14:15:14.696Z,12.60
2019-03-30T14:17:44.326Z,14.23
2019-03-30T14:20:13.815Z,12.73
2019-03-30T14:22:43.356Z,12.80
2019-03-30T14:25:12.932Z,13.13
2019-03-30T14:27:42.528Z,12.20
2019-03-30T14:30:12.648Z,12.23
2019-03-30T14:32:41.944Z,13.27
2019-03-30T14:35:11.484Z,16.17
2019-03-30T14:37:40.889Z,13.67
2019-03-30T14:40:10.828Z,11.93
2019-03-30T14:42:40.135Z,12.47
2019-03-30T14:45:09.941Z,15.10
2019-03-30T14:47:40.027Z,10.17
2019-03-30T14:50:11.367Z,11.00
2019-03-30T14:52:41.012Z,15.33
2019-03-30T14:55:10.600Z,13.50
2019-03-30T14:57:39.948Z,10.97
2019-03-30T15:00:10.228Z,12.53
2019-03-30T15:02:39.583Z,10.43
2019-03-30T15:05:09.952Z,13.73
2019-03-30T15:07:40.187Z,12.13
2019-03-30T15:10:10.160Z,12.93
2019-03-30T15:12:40.670Z,12.40
2019-03-30T15:15:11.643Z,12.47
2019-03-30T15:17:41.573Z,14.57
2019-03-30T15:20:11.987Z,12.47
2019-03-30T15:22:42.251Z,13.57
2019-03-30T15:25:12.472Z,12.50
2019-03-30T15:27:41.950Z,10.00
2019-03-30T15:30:12.004Z,10.03
2019-03-30T15:32:41.651Z,10.40
2019-03-30T15:35:11.310Z,13.63
2019-03-30T15:37:41.024Z,11.20
2019-03-30T15:40:11.013Z,9.03
2019-03-30T15:42:40.793Z,10.27
2019-03-30T15:45:10.734Z,12.97
2019-03-30T15:47:40.206Z,11.60
2019-03-30T15:50:10.323Z,14.47
2019-03-30T15:52:39.652Z,16.63
2019-03-30T15:55:09.421Z,10.77
2019-03-30T15:57:38.752Z,13.97
2019-03-30T16:00:10.180Z,12.70
2019-03-30T16:02:40.597Z,14.70
2019-03-30T16:05:10.657Z,12.13
2019-03-30T16:07:40.268Z,14.77
2019-03-30T16:10:10.264Z,15.40
2019-03-30T16:12:39.886Z,13.07
2019-03-30T16:15:09.656Z,13.70
2019-03-30T16:17:39.325Z,19.07
2019-03-30T16:20:09.444Z,13.80
2019-03-30T16:22:39.939Z,15.33
2019-03-30T16:25:09.598Z,13.80
2019-03-30T16:27:39.629Z,12.80
2019-03-30T16:30:10.663Z,13.37
2019-03-30T16:32:40.113Z,12.97
2019-03-30T16:35:10.158Z,14.20
2019-03-30T16:37:40.145Z,15.60
2019-03-30T16:40:10.379Z,12.90
2019-03-30T16:42:40.452Z,13.83
2019-03-30T16:45:10.630Z,12.27
2019-03-30T16:47:40.299Z,14.57
2019-03-30T16:50:11.077Z,10.33
2019-03-30T16:52:41.132Z,11.40
2019-03-30T16:55:11.063Z,14.27
2019-03-30T16:57:44.359Z,10.03
2019-03-30T17:00:13.263Z,11.37
2019-03-30T17:02:43.163Z,14.53
2019-03-30T17:05:13.476Z,13.67
2019-03-30T17:07:42.812Z,13.30
2019-03-30T17:10:12.410Z,13.83
2019-03-30T17:12:42.560Z,13.03
2019-03-30T17:15:13.080Z,14.03
2019-03-30T17:17:43.135Z,12.77
2019-03-30T17:20:12.802Z,14.27
2019-03-30T17:22:42.441Z,19.07
2019-03-30T17:25:12.137Z,12.50
2019-03-30T17:27:41.892Z,12.33
2019-03-30T17:30:12.054Z,15.30
2019-03-30T17:32:41.740Z,15.13
2019-03-30T17:35:11.889Z,62.03
2019-03-30T17:37:41.748Z,23.73
2019-03-30T17:40:12.146Z,21.70
2019-03-30T17:42:41.820Z,19.07
2019-03-30T17:45:11.680Z,17.07
2019-03-30T17:47:40.988Z,17.43
2019-03-30T17:50:12.141Z,20.53
2019-03-30T17:52:41.493Z,20.07
2019-03-30T17:55:11.396Z,18.97
2019-03-30T17:57:41.024Z,17.87
2019-03-30T18:00:12.990Z,18.00
2019-03-30T18:02:42.566Z,19.57
2019-03-30T18:05:12.137Z,22.07
2019-03-30T18:07:41.512Z,18.00
2019-03-30T18:10:11.402Z,18.83
2019-03-30T18:12:40.711Z,20.70
2019-03-30T18:15:10.742Z,23.10
2019-03-30T18:17:40.693Z,24.90
2019-03-30T18:20:10.254Z,18.70
2019-03-30T18:22:39.642Z,21.10
2019-03-30T18:25:09.975Z,22.77
2019-03-30T18:27:39.287Z,23.10
2019-03-30T18:30:11.053Z,21.90
2019-03-30T18:32:41.061Z,21.23
2019-03-30T18:35:10.977Z,20.77
2019-03-30T18:37:40.909Z,24.67
2019-03-30T18:40:12.063Z,21.47
2019-03-30T18:42:41.895Z,22.17
2019-03-30T18:45:15.460Z,21.93
2019-03-30T18:47:44.791Z,21.77
2019-03-30T18:50:14.192Z,22.17
2019-03-30T18:52:45.231Z,20.37
2019-03-30T18:55:19.305Z,20.47
2019-03-30T18:57:48.946Z,19.90
2019-03-30T19:00:24.157Z,23.37
2019-03-30T19:02:54.085Z,18.23
2019-03-30T19:05:23.579Z,20.77
2019-03-30T19:07:53.387Z,20.13
2019-03-30T19:10:23.173Z,18.13
2019-03-30T19:12:52.777Z,21.57
2019-03-30T19:15:22.127Z,22.43
2019-03-30T19:17:51.541Z,17.50
2019-03-30T19:20:21.607Z,17.03
2019-03-30T19:22:51.213Z,18.07
2019-03-30T19:25:20.536Z,20.20
2019-03-30T19:27:50.423Z,18.97
2019-03-30T19:30:20.565Z,18.77
2019-03-30T19:32:50.192Z,20.63
2019-03-30T19:35:19.869Z,17.27
2019-03-30T19:37:49.174Z,17.10
2019-03-30T19:40:18.600Z,19.93
2019-03-30T19:42:48.223Z,19.00
2019-03-30T19:45:17.951Z,20.53
2019-03-30T19:47:47.589Z,18.33
2019-03-30T19:50:17.597Z,22.53
2019-03-30T19:53:06.396Z,20.17
2019-03-30T19:55:35.752Z,15.93
2019-03-30T19:58:05.565Z,18.47
2019-03-30T20:00:38.396Z,16.17
2019-03-30T20:03:06.133Z,18.27
2019-03-30T20:05:35.487Z,16.37
2019-03-30T20:08:11.908Z,20.03
2019-03-30T20:10:35.988Z,18.20
2019-03-30T20:13:09.056Z,20.30
2019-03-30T20:15:36.644Z,18.37
2019-03-30T20:18:06.432Z,22.33
2019-03-30T20:20:35.824Z,19.63
2019-03-30T20:23:05.482Z,19.10
2019-03-30T20:25:35.137Z,20.30
2019-03-30T20:28:04.620Z,21.47
2019-03-30T20:30:34.157Z,18.67
2019-03-30T20:33:04.084Z,21.60
2019-03-30T20:35:33.788Z,18.37
2019-03-30T20:38:03.098Z,20.70
2019-03-30T20:40:32.527Z,20.87
2019-03-30T20:43:02.148Z,19.07
2019-03-30T20:45:31.883Z,18.93
2019-03-30T20:48:01.448Z,19.97
2019-03-30T20:50:30.754Z,23.27
2019-03-30T20:53:00.641Z,20.77
2019-03-30T20:55:30.023Z,18.60
2019-03-30T20:57:59.373Z,20.20
2019-03-30T21:00:29.060Z,23.27
2019-03-30T21:02:58.945Z,17.20
2019-03-30T21:05:28.660Z,17.37
2019-03-30T21:07:58.059Z,21.50
2019-03-30T21:10:27.463Z,21.33
2019-03-30T21:12:56.812Z,18.37
2019-03-30T21:15:26.167Z,20.93
2019-03-30T21:17:55.483Z,22.67
2019-03-30T21:20:24.833Z,19.57
2019-03-30T21:22:54.143Z,21.90
2019-03-30T21:25:23.726Z,21.97
2019-03-30T21:27:53.035Z,21.13
2019-03-30T21:30:22.447Z,21.27
2019-03-30T21:32:52.277Z,19.67
2019-03-30T21:35:21.694Z,19.10
2019-03-30T21:37:51.081Z,24.63
2019-03-30T21:40:20.407Z,18.93
2019-03-30T21:42:49.787Z,22.47
2019-03-30T21:45:19.211Z,20.33
2019-03-30T21:47:48.876Z,22.43
2019-03-30T21:50:18.262Z,25.53
2019-03-30T21:52:47.851Z,22.10
2019-03-30T21:55:17.172Z,18.50
2019-03-30T21:57:46.513Z,19.87
2019-03-30T22:00:29.074Z,24.13
2019-03-30T22:02:58.420Z,22.63
2019-03-30T22:05:27.987Z,27.03
2019-03-30T22:07:58.364Z,28.77
2019-03-30T22:10:28.872Z,23.33
2019-03-30T22:12:58.747Z,26.97
2019-03-30T22:15:28.631Z,29.67
2019-03-30T22:17:58.094Z,34.87
2019-03-30T22:20:27.794Z,30.53
2019-03-30T22:22:57.263Z,34.13
2019-03-30T22:25:26.597Z,32.40
2019-03-30T22:27:55.906Z,38.17
2019-03-30T22:30:25.538Z,33.37
2019-03-30T22:32:55.722Z,42.50
2019-03-30T22:35:25.210Z,39.13
2019-03-30T22:37:54.648Z,40.17
2019-03-30T22:40:24.030Z,40.40
2019-03-30T22:42:53.684Z,38.97
2019-03-30T22:45:23.349Z,43.40
2019-03-30T22:47:52.679Z,42.73
2019-03-30T22:50:22.290Z,40.93
2019-03-30T22:52:51.887Z,41.80
2019-03-30T22:55:21.204Z,40.00
2019-03-30T22:57:50.651Z,41.13
2019-03-30T23:00:39.459Z,39.13
2019-03-30T23:03:09.891Z,38.30
2019-03-30T23:05:39.612Z,38.00
2019-03-30T23:08:08.931Z,41.40
2019-03-30T23:10:38.913Z,42.20
2019-03-30T23:13:08.240Z,40.50
2019-03-30T23:15:37.575Z,43.57
2019-03-30T23:18:07.215Z,44.50
2019-03-30T23:20:36.560Z,44.60
2019-03-30T23:23:05.947Z,44.53
2019-03-30T23:25:35.281Z,41.50
2019-03-30T23:28:04.678Z,41.07
2019-03-30T23:30:34.311Z,42.80
2019-03-30T23:33:04.269Z,41.53
2019-03-30T23:35:33.580Z,45.53
2019-03-30T23:38:02.976Z,41.80
2019-03-30T23:40:32.565Z,47.23
2019-03-30T23:43:01.943Z,45.93
2019-03-30T23:45:31.289Z,50.03
2019-03-30T23:48:00.772Z,49.70
2019-03-30T23:50:30.078Z,45.90
2019-03-30T23:52:59.439Z,52.07
2019-03-30T23:55:29.464Z,52.70
2019-03-30T23:57:58.798Z,49.60
